Saint John's, Antigua and Barbuda
Current Conditions -  °F | °C
As of 4:00 PM on Sunday 21 Dec 2014 (Local Time) from TAPA Reporting Station
Rain Showers Rain Showers  
Wind Chill: 81°   Ceiling: Unl
Heat Index: 84°   Visibility: 6mi
Dew Point: 70°   Wind: 7mph
Humidity: 70%   Direction: 80°E
Pressure: 29.97"   Gusts: NA
Location:  17.11°N, 61.85°W
Report Text: TAPA 212000Z 08006KT 9999 -SHRA SCT020 27/21 Q1015 NOSIG
Loading
Personal Weather Stations






























Interactive Weather Map New forecast layout! Learn more

10-Day Weather Forecast

Advertisements
Track Severe Weather on mobile